Time;durP1;ratioP1;P1;durP2;ratioP2;P2;SDS_P1;SDS_P2;PMS_P1;PMS_P2;Temp;Humidity;BMP_temperature;BMP_pressure;BME280_temperature;BME280_humidity;BME280_pressure;Samples;Min_cycle;Max_cycle;Signal;HPM_P1;HPM_P2
2024/04/13 00:00:49;;;;;;;33.95;19.83;;;;;;;31.54;85.97;100864.81;5386083;26;67801;-30
2024/04/13 00:03:20;;;;;;;35.15;18.05;;;;;;;31.57;86.71;100864.34;5386549;26;65042;-31
2024/04/13 00:05:51;;;;;;;31.40;16.90;;;;;;;31.55;87.12;100867.28;5380666;26;68529;-31
2024/04/13 00:08:22;;;;;;;25.25;17.38;;;;;;;31.64;88.45;100869.69;5386530;26;65576;-30
2024/04/13 00:10:53;;;;;;;38.65;18.60;;;;;;;31.63;88.39;100878.88;5385580;26;68016;-30
2024/04/13 00:13:24;;;;;;;30.70;17.50;;;;;;;31.46;87.61;100846.94;5384030;26;65050;-30
2024/04/13 00:15:58;;;;;;;29.20;16.98;;;;;;;31.64;89.27;100865.09;5387542;26;69175;-35
2024/04/13 00:18:34;;;;;;;34.55;17.20;;;;;;;31.69;90.76;100869.84;5388927;26;64658;-31
2024/04/13 00:21:05;;;;;;;31.05;17.15;;;;;;;31.74;90.37;100891.69;5366966;26;69087;-31
2024/04/13 00:23:35;;;;;;;26.98;16.73;;;;;;;31.75;88.28;100893.34;5389166;26;66473;-30
2024/04/13 00:26:06;;;;;;;24.27;16.02;;;;;;;31.74;89.51;100899.81;5388712;26;67869;-29
2024/04/13 00:28:38;;;;;;;28.58;16.35;;;;;;;31.77;91.36;100902.09;5402159;26;64398;-30
2024/04/13 00:31:10;;;;;;;24.70;16.13;;;;;;;31.79;87.26;100911.66;5382973;26;69002;-30
2024/04/13 00:33:41;;;;;;;26.02;15.50;;;;;;;31.81;89.04;100919.56;5385527;26;65626;-31
2024/04/13 00:36:11;;;;;;;21.40;15.82;;;;;;;31.82;89.74;100922.06;5377823;26;68925;-31
2024/04/13 00:38:42;;;;;;;27.02;15.40;;;;;;;31.85;88.65;100928.09;5386545;26;64900;-30
2024/04/13 00:41:13;;;;;;;30.77;16.85;;;;;;;31.86;88.74;100917.00;5379086;26;68800;-31
2024/04/13 00:43:45;;;;;;;24.35;16.33;;;;;;;31.92;88.25;100913.41;5387481;26;64830;-30
2024/04/13 00:46:23;;;;;;;25.95;17.10;;;;;;;31.91;88.37;100917.19;5387242;26;68874;-30
2024/04/13 00:48:54;;;;;;;29.90;16.20;;;;;;;31.87;88.38;100909.69;5388166;26;64025;-31
2024/04/13 00:51:26;;;;;;;27.08;15.77;;;;;;;31.96;88.89;100917.34;5387749;26;70048;-31
2024/04/13 00:53:57;;;;;;;25.65;16.33;;;;;;;32.00;89.24;100929.38;5388523;26;64097;-30
2024/04/13 00:56:28;;;;;;;25.98;15.10;;;;;;;32.01;88.94;100931.06;5388304;26;68714;-31
2024/04/13 00:59:00;;;;;;;22.17;14.77;;;;;;;32.02;90.45;100935.41;5386976;26;65146;-31
2024/04/13 01:01:31;;;;;;;27.33;15.05;;;;;;;32.01;89.18;100941.06;5396330;26;67571;-31
2024/04/13 01:04:02;;;;;;;26.50;16.38;;;;;;;32.08;88.90;100943.72;5410185;26;64379;-31
2024/04/13 01:06:33;;;;;;;30.60;16.10;;;;;;;32.07;90.06;100942.03;5387154;26;67270;-31
2024/04/13 01:09:04;;;;;;;22.90;15.57;;;;;;;32.12;89.76;100947.59;5386517;26;66065;-32
2024/04/13 01:11:34;;;;;;;23.55;15.02;;;;;;;32.16;89.36;100954.25;5387961;26;68566;-32
2024/04/13 01:14:07;;;;;;;25.77;15.73;;;;;;;32.18;90.68;100952.97;5388052;26;64256;-30
2024/04/13 01:16:38;;;;;;;31.05;16.05;;;;;;;32.23;89.59;100955.84;5381774;26;69524;-31
2024/04/13 01:19:11;;;;;;;24.30;15.05;;;;;;;32.24;90.18;100962.09;5394880;26;64709;-31
2024/04/13 01:21:43;;;;;;;25.38;15.60;;;;;;;32.30;89.68;100960.34;5383837;26;69122;-30
2024/04/13 01:24:14;;;;;;;21.77;14.85;;;;;;;32.33;88.60;100968.03;5370703;26;63811;-30
2024/04/13 01:26:45;;;;;;;30.10;15.27;;;;;;;32.33;88.57;100960.72;5386875;26;69204;-31
2024/04/13 01:29:16;;;;;;;22.42;14.65;;;;;;;32.34;89.67;100967.78;5386193;26;66126;-29
2024/04/13 01:31:47;;;;;;;29.73;14.97;;;;;;;32.34;88.20;100966.97;5387173;26;67571;-31
2024/04/13 01:34:18;;;;;;;27.02;14.70;;;;;;;32.43;87.21;100971.00;5385302;26;65089;-30
2024/04/13 01:36:49;;;;;;;28.42;14.73;;;;;;;32.49;85.75;100981.84;5395149;26;69125;-30
2024/04/13 01:39:20;;;;;;;20.38;14.23;;;;;;;32.58;86.15;100984.25;5357140;26;64801;-31
2024/04/13 01:41:54;;;;;;;22.85;14.80;;;;;;;32.62;86.55;100983.53;5386331;26;68321;-30
2024/04/13 01:44:27;;;;;;;24.02;14.40;;;;;;;32.63;84.31;100981.66;5384362;26;64561;-30
2024/04/13 01:46:59;;;;;;;19.90;13.75;;;;;;;32.63;84.22;100990.63;5387900;26;69258;-30
2024/04/13 01:49:29;;;;;;;22.48;13.38;;;;;;;32.65;84.60;100991.25;5385209;26;64877;-30
2024/04/13 01:52:00;;;;;;;21.08;13.23;;;;;;;32.66;84.32;100997.50;5372661;26;67999;-31
2024/04/13 01:54:31;;;;;;;14.70;12.52;;;;;;;32.69;84.38;100987.00;5412580;26;65621;-31
2024/04/13 01:57:02;;;;;;;22.38;12.68;;;;;;;32.72;84.11;101002.00;5383840;26;68835;-31
2024/04/13 01:59:33;;;;;;;19.35;13.50;;;;;;;32.76;83.75;101002.38;5383609;26;65585;-30
2024/04/13 02:02:04;;;;;;;20.13;13.13;;;;;;;32.72;83.46;100991.16;5384277;26;69012;-30
2024/04/13 02:04:34;;;;;;;15.10;12.10;;;;;;;32.76;83.94;100999.66;5384147;26;64662;-31
2024/04/13 02:07:06;;;;;;;18.52;12.85;;;;;;;32.85;83.22;101001.00;5392232;26;68955;-31
2024/04/13 02:09:37;;;;;;;17.58;13.13;;;;;;;32.85;83.41;100999.13;5400414;26;65478;-30
2024/04/13 02:12:08;;;;;;;17.50;12.07;;;;;;;32.88;83.98;101012.22;5382330;26;68578;-30
2024/04/13 02:14:39;;;;;;;15.98;12.93;;;;;;;32.93;83.46;101003.38;5385169;26;64375;-30
2024/04/13 02:17:10;;;;;;;18.70;13.00;;;;;;;32.94;83.08;101005.88;5384770;26;68811;-30
2024/04/13 02:19:42;;;;;;;17.77;12.25;;;;;;;33.00;83.58;101008.75;5381074;26;64329;-31
2024/04/13 02:22:15;;;;;;;16.65;12.60;;;;;;;33.01;82.95;101010.41;5384873;26;68645;-31
2024/04/13 02:24:46;;;;;;;13.80;12.45;;;;;;;33.01;83.04;101000.34;5385394;26;65107;-30
2024/04/13 02:27:17;;;;;;;14.05;12.63;;;;;;;33.08;82.41;101006.53;5381891;26;68711;-32
2024/04/13 02:29:50;;;;;;;14.07;12.30;;;;;;;33.10;81.97;100998.16;5394986;26;64856;-30
2024/04/13 02:32:21;;;;;;;16.73;12.15;;;;;;;33.11;83.03;100992.47;5389395;26;68016;-31
2024/04/13 02:34:52;;;;;;;15.63;12.05;;;;;;;33.16;81.89;100991.78;5380320;26;65006;-30
2024/04/13 02:37:22;;;;;;;14.50;12.18;;;;;;;33.22;81.95;100998.19;5383854;26;67955;-30
2024/04/13 02:39:53;;;;;;;16.80;11.55;;;;;;;33.25;82.80;100990.38;5381788;26;65327;-31
2024/04/13 02:42:24;;;;;;;16.52;12.45;;;;;;;33.26;81.55;100989.28;5376261;26;68886;-30
2024/04/13 02:44:55;;;;;;;13.48;12.10;;;;;;;33.32;81.79;100990.25;5380464;26;64931;-31
2024/04/13 02:47:26;;;;;;;18.83;12.82;;;;;;;33.36;82.20;100996.91;5382677;26;68219;-31
2024/04/13 02:49:57;;;;;;;14.02;12.45;;;;;;;33.39;81.26;100996.41;5383867;26;65083;-34
2024/04/13 02:52:29;;;;;;;14.35;13.00;;;;;;;33.22;81.97;100966.38;5384196;26;69287;-31
2024/04/13 02:55:00;;;;;;;15.98;12.85;;;;;;;33.44;80.83;100990.28;5381699;26;63824;-32
2024/04/13 02:57:31;;;;;;;16.95;12.68;;;;;;;33.44;81.38;100995.72;5384700;26;68699;-32
2024/04/13 03:00:03;;;;;;;16.98;12.82;;;;;;;33.49;81.86;100990.38;5384601;26;65170;-31
2024/04/13 03:02:36;;;;;;;;;;;;;;;33.46;82.47;100991.72;5381192;26;69177;-32
2024/04/13 03:05:07;;;;;;;15.38;12.93;;;;;;;33.55;80.89;100994.94;5394360;26;63876;-33
2024/04/13 03:07:38;;;;;;;14.10;12.73;;;;;;;33.58;80.55;100989.03;5384081;26;68029;-31
2024/04/13 03:10:10;;;;;;;16.27;13.13;;;;;;;33.59;81.21;100990.66;5383146;26;65485;-32
2024/04/13 03:12:41;;;;;;;23.23;12.53;;;;;;;33.63;80.44;100985.56;5383309;26;67151;-31
2024/04/13 03:15:12;;;;;;;18.48;12.85;;;;;;;33.65;80.49;100984.28;5383315;26;64024;-33
2024/04/13 03:17:43;;;;;;;16.15;12.35;;;;;;;33.68;80.98;100997.41;5378423;26;69878;-31
2024/04/13 03:20:14;;;;;;;13.02;12.02;;;;;;;33.70;80.44;100987.13;5384181;26;64266;-35
2024/04/13 03:22:45;;;;;;;14.02;12.70;;;;;;;33.73;80.88;101002.13;5383928;26;67793;-34
2024/04/13 03:25:15;;;;;;;14.38;12.93;;;;;;;33.76;80.50;100990.78;5384685;26;64685;-31
2024/04/13 03:27:46;;;;;;;15.82;12.73;;;;;;;33.77;80.61;100987.84;5392802;26;68736;-32
2024/04/13 03:30:17;;;;;;;17.33;12.32;;;;;;;33.81;80.02;100991.72;5381487;26;65150;-35
2024/04/13 03:32:48;;;;;;;16.65;11.88;;;;;;;33.83;80.44;100991.50;5384544;26;67869;-32
2024/04/13 03:35:19;;;;;;;13.30;11.95;;;;;;;33.85;80.28;100986.66;5384292;26;65178;-31
2024/04/13 03:37:50;;;;;;;16.27;13.18;;;;;;;33.87;79.57;100975.50;5376743;26;69149;-33
2024/04/13 03:40:20;;;;;;;13.45;12.05;;;;;;;33.92;80.40;100983.78;5406690;26;64956;-31
2024/04/13 03:42:51;;;;;;;13.55;12.15;;;;;;;33.90;80.47;100975.84;5381705;26;68937;-31
2024/04/13 03:45:21;;;;;;;13.30;11.93;;;;;;;33.95;80.29;100973.25;5381426;26;65102;-31
2024/04/13 03:47:52;;;;;;;13.27;11.70;;;;;;;33.89;79.61;100962.50;5384236;26;68779;-32
2024/04/13 03:50:23;;;;;;;16.00;11.97;;;;;;;33.97;79.97;100968.41;5384485;26;65003;-31
2024/04/13 03:52:54;;;;;;;13.17;11.70;;;;;;;34.01;80.10;100966.03;5380757;26;68576;-32
2024/04/13 03:55:25;;;;;;;13.67;12.13;;;;;;;34.03;80.06;100961.16;5383319;26;63821;-33
2024/04/13 03:57:56;;;;;;;12.77;11.23;;;;;;;34.00;79.53;100946.16;5383216;26;68473;-33
2024/04/13 04:00:27;;;;;;;13.05;11.73;;;;;;;34.09;79.13;100960.22;5358697;26;64291;-31
2024/04/13 04:02:58;;;;;;;12.93;11.35;;;;;;;34.12;79.31;100954.31;5366357;26;67830;-31
2024/04/13 04:05:28;;;;;;;19.23;12.20;;;;;;;34.15;79.25;100940.22;5381506;26;64240;-30
2024/04/13 04:07:59;;;;;;;13.18;11.20;;;;;;;34.19;78.98;100944.13;5373457;26;68782;-31
2024/04/13 04:10:30;;;;;;;12.52;11.32;;;;;;;34.21;79.01;100944.72;5383680;26;65196;-32
2024/04/13 04:13:02;;;;;;;13.77;12.35;;;;;;;34.23;79.43;100937.09;5390392;26;68815;-35
2024/04/13 04:15:34;;;;;;;12.70;10.80;;;;;;;34.24;79.06;100927.03;5368188;26;64475;-32
2024/04/13 04:18:05;;;;;;;13.27;11.95;;;;;;;34.30;78.78;100930.69;5381525;26;67606;-30
2024/04/13 04:20:36;;;;;;;15.80;12.50;;;;;;;34.36;79.11;100924.28;5382654;26;65414;-33
2024/04/13 04:23:07;;;;;;;12.20;11.17;;;;;;;34.36;78.94;100919.66;5361344;26;68710;-31
2024/04/13 04:25:40;;;;;;;11.27;10.27;;;;;;;34.39;79.32;100921.09;5384175;26;64483;-33
2024/04/13 04:28:11;;;;;;;14.38;11.50;;;;;;;34.41;78.61;100918.94;5380383;26;67769;-32
2024/04/13 04:30:45;;;;;;;11.85;10.75;;;;;;;34.42;79.21;100912.41;5383957;26;64268;-31
2024/04/13 04:33:16;;;;;;;11.70;10.73;;;;;;;34.49;78.63;100918.53;5382470;26;67830;-31
2024/04/13 04:35:47;;;;;;;12.57;11.50;;;;;;;34.53;78.39;100903.38;5379085;26;64186;-31
2024/04/13 04:38:18;;;;;;;12.00;10.90;;;;;;;34.53;79.10;100900.63;5383397;26;69174;-32
2024/04/13 04:40:49;;;;;;;12.13;10.73;;;;;;;34.57;78.29;100901.00;5380417;26;65505;-31
2024/04/13 04:43:20;;;;;;;11.60;10.43;;;;;;;34.61;78.44;100888.56;5380587;26;69597;-30
2024/04/13 04:45:51;;;;;;;11.27;10.25;;;;;;;34.62;78.90;100891.03;5358479;26;64085;-31
2024/04/13 04:48:23;;;;;;;11.80;10.80;;;;;;;34.63;78.90;100870.91;5402451;26;68470;-31
2024/04/13 04:50:58;;;;;;;11.57;10.50;;;;;;;34.64;78.82;100872.53;5382037;26;65564;-31
2024/04/13 04:53:29;;;;;;;11.40;10.30;;;;;;;34.65;78.20;100868.72;5380016;26;68850;-31
2024/04/13 04:56:00;;;;;;;12.07;10.55;;;;;;;34.69;78.32;100864.47;5382051;26;63926;-31
2024/04/13 04:58:31;;;;;;;11.47;10.27;;;;;;;34.57;78.79;100844.63;5386228;26;68148;-31
2024/04/13 05:01:07;;;;;;;11.03;10.33;;;;;;;34.74;78.65;100855.53;5385191;26;64078;-36
2024/04/13 05:03:38;;;;;;;14.27;10.27;;;;;;;34.79;78.10;100854.78;5383461;26;67840;-34
2024/04/13 05:06:08;;;;;;;11.27;9.60;;;;;;;34.81;78.40;100850.75;5386505;26;64658;-34
2024/04/13 05:08:39;;;;;;;10.83;9.87;;;;;;;34.83;78.55;100842.34;5386237;26;69005;-33
2024/04/13 05:11:11;;;;;;;11.20;10.20;;;;;;;34.86;78.05;100831.75;5384311;26;64825;-32
2024/04/13 05:13:42;;;;;;;11.23;10.38;;;;;;;34.86;78.34;100834.47;5386061;26;67712;-34
2024/04/13 05:16:13;;;;;;;11.82;10.45;;;;;;;34.90;77.97;100832.06;5365362;26;65290;-33
2024/04/13 05:18:44;;;;;;;;;;;;;;;34.86;77.97;100829.03;5384056;26;69662;-31
2024/04/13 05:21:15;;;;;;;10.20;9.40;;;;;;;34.97;78.12;100829.19;5395479;26;64529;-33
2024/04/13 05:23:46;;;;;;;11.13;10.23;;;;;;;34.93;78.05;100809.75;5384741;26;69104;-33
2024/04/13 05:26:17;;;;;;;11.37;10.20;;;;;;;35.01;77.81;100812.06;5386562;26;65161;-32
2024/04/13 05:28:48;;;;;;;10.32;9.55;;;;;;;35.01;78.02;100801.16;5386066;26;69571;-31
2024/04/13 05:31:20;;;;;;;11.35;10.38;;;;;;;35.03;77.94;100804.47;5384412;26;64938;-31
2024/04/13 05:33:51;;;;;;;10.73;9.85;;;;;;;35.05;77.63;100799.59;5383967;26;67832;-31
2024/04/13 05:36:23;;;;;;;10.52;9.82;;;;;;;35.10;77.83;100793.41;5413759;26;63736;-31
2024/04/13 05:38:54;;;;;;;17.13;10.23;;;;;;;35.15;77.37;100785.31;5382576;26;67731;-31
2024/04/13 05:41:25;;;;;;;11.98;10.77;;;;;;;35.17;77.71;100782.34;5386084;26;64416;-32
2024/04/13 05:43:56;;;;;;;11.02;10.25;;;;;;;35.17;77.80;100785.06;5385417;26;67856;-32
2024/04/13 05:46:27;;;;;;;10.63;9.40;;;;;;;35.22;77.32;100782.41;5380937;26;65455;-31
2024/04/13 05:48:57;;;;;;;10.27;9.23;;;;;;;35.23;77.92;100770.41;5382267;26;69135;-32
2024/04/13 05:51:29;;;;;;;10.07;9.45;;;;;;;35.25;77.17;100762.81;5383829;26;64985;-31
2024/04/13 05:53:59;;;;;;;10.87;9.83;;;;;;;35.30;77.48;100760.13;5386088;26;69094;-32
2024/04/13 05:56:30;;;;;;;11.07;10.13;;;;;;;35.28;77.22;100752.22;5382827;26;63954;-31
2024/04/13 05:59:01;;;;;;;11.17;9.10;;;;;;;35.32;76.82;100752.53;5385077;26;68674;-33
2024/04/13 06:01:34;;;;;;;11.73;10.57;;;;;;;35.36;77.03;100738.13;5381052;26;65694;-31
2024/04/13 06:04:05;;;;;;;12.68;9.55;;;;;;;35.43;76.68;100735.22;5386183;26;67737;-31
2024/04/13 06:06:36;;;;;;;11.38;10.38;;;;;;;35.43;76.97;100727.03;5382952;26;66114;-32
2024/04/13 06:09:08;;;;;;;11.02;10.13;;;;;;;35.46;76.87;100725.69;5384869;26;69236;-33
2024/04/13 06:11:39;;;;;;;10.05;9.23;;;;;;;35.49;77.09;100726.00;5383446;26;64062;-33
2024/04/13 06:14:13;;;;;;;10.88;9.70;;;;;;;35.32;76.60;100687.06;5382413;26;68953;-32
2024/04/13 06:16:47;;;;;;;10.10;9.50;;;;;;;35.53;76.62;100705.31;5385240;26;64019;-31
2024/04/13 06:19:18;;;;;;;11.02;10.10;;;;;;;35.58;76.33;100705.41;5362352;26;68517;-31
2024/04/13 06:21:50;;;;;;;11.13;10.05;;;;;;;35.61;76.28;100705.97;5382037;26;64825;-33
2024/04/13 06:24:21;;;;;;;11.10;10.20;;;;;;;35.67;76.13;100699.50;5385664;26;68730;-31
2024/04/13 06:26:54;;;;;;;10.77;9.85;;;;;;;35.68;76.60;100706.59;5385262;26;65232;-31
2024/04/13 06:29:24;;;;;;;13.02;10.30;;;;;;;35.73;76.53;100701.19;5406949;26;68768;-31
2024/04/13 06:31:59;;;;;;;10.75;9.75;;;;;;;35.71;76.34;100695.16;5384307;26;63860;-31
2024/04/13 06:34:30;;;;;;;10.30;9.55;;;;;;;35.82;75.90;100707.81;5383349;26;67990;-31
2024/04/13 06:37:01;;;;;;;10.23;9.40;;;;;;;35.83;76.65;100697.72;5386167;26;65402;-31
2024/04/13 06:39:32;;;;;;;10.25;9.45;;;;;;;35.86;76.28;100686.28;5384197;26;67628;-32
2024/04/13 06:42:03;;;;;;;9.98;9.27;;;;;;;35.90;76.19;100682.78;5381972;26;65078;-32
2024/04/13 06:44:34;;;;;;;11.13;10.00;;;;;;;35.92;76.36;100686.09;5381347;26;68990;-32
2024/04/13 06:47:07;;;;;;;9.93;9.18;;;;;;;35.98;75.92;100682.31;5384548;26;64206;-30
2024/04/13 06:49:38;;;;;;;9.75;9.05;;;;;;;36.00;75.77;100677.44;5379670;26;67895;-31
2024/04/13 06:52:09;;;;;;;9.95;9.35;;;;;;;36.05;75.92;100679.38;5385008;26;64656;-32
2024/04/13 06:54:40;;;;;;;10.88;9.50;;;;;;;36.10;75.80;100675.88;5381413;26;68982;-30
2024/04/13 06:57:13;;;;;;;9.35;8.85;;;;;;;36.12;75.77;100674.53;5382976;26;64277;-31
2024/04/13 06:59:45;;;;;;;10.18;9.10;;;;;;;36.15;75.54;100668.56;5384337;26;68730;-32
2024/04/13 07:02:16;;;;;;;;;;;;;;;36.08;75.27;100667.97;5393716;26;65076;-31
2024/04/13 07:04:47;;;;;;;13.00;10.17;;;;;;;36.20;75.47;100659.59;5394040;26;69321;-31
2024/04/13 07:07:20;;;;;;;9.02;8.43;;;;;;;36.28;75.17;100645.44;5385437;26;64188;-31
2024/04/13 07:09:51;;;;;;;10.43;9.53;;;;;;;36.33;75.58;100648.22;5382743;26;68655;-32
2024/04/13 07:12:22;;;;;;;9.73;9.13;;;;;;;36.35;74.96;100650.66;5385263;26;64537;-31
2024/04/13 07:14:53;;;;;;;9.43;8.63;;;;;;;36.37;75.38;100643.84;5385087;26;68519;-30
2024/04/13 07:17:24;;;;;;;12.55;9.82;;;;;;;36.39;75.01;100641.69;5381073;26;64870;-31
2024/04/13 07:19:55;;;;;;;10.07;9.20;;;;;;;36.46;74.73;100636.78;5385228;26;69684;-31
2024/04/13 07:22:26;;;;;;;9.55;8.82;;;;;;;36.51;74.86;100643.41;5385027;26;65894;-32
2024/04/13 07:24:57;;;;;;;9.52;8.68;;;;;;;36.54;75.01;100638.25;5379988;26;69314;-32
2024/04/13 07:27:28;;;;;;;9.20;8.60;;;;;;;36.57;74.73;100640.44;5383553;26;64150;-31
2024/04/13 07:30:00;;;;;;;9.90;8.68;;;;;;;36.60;75.00;100641.81;5383006;26;67927;-31
2024/04/13 07:32:31;;;;;;;9.82;8.88;;;;;;;36.65;74.32;100633.66;5409367;26;64059;-31
2024/04/13 07:35:03;;;;;;;9.95;9.23;;;;;;;36.70;74.88;100633.69;5385083;26;68518;-32
2024/04/13 07:37:34;;;;;;;9.80;9.00;;;;;;;36.74;74.61;100623.84;5392369;26;63993;-31
2024/04/13 07:40:06;;;;;;;9.20;8.50;;;;;;;36.79;73.94;100631.25;5380802;26;69749;-32
2024/04/13 07:42:37;;;;;;;9.68;8.93;;;;;;;36.83;73.98;100624.16;5384161;26;64757;-31
2024/04/13 07:45:08;;;;;;;10.80;8.65;;;;;;;36.86;73.84;100632.66;5382074;26;67626;-31
2024/04/13 07:47:41;;;;;;;10.45;9.65;;;;;;;36.84;73.71;100621.16;5383585;26;66347;-32
2024/04/13 07:50:12;;;;;;;9.73;8.82;;;;;;;36.94;74.34;100628.56;5382966;26;69224;-32
2024/04/13 07:52:43;;;;;;;9.05;8.30;;;;;;;36.90;73.87;100613.81;5379867;26;64889;-32
2024/04/13 07:55:15;;;;;;;9.05;8.38;;;;;;;36.95;74.11;100610.28;5374562;26;67934;-33
2024/04/13 07:57:45;;;;;;;;;;;;;;;36.90;72.99;100620.09;5363369;26;64807;-35
2024/04/13 08:00:16;;;;;;;10.27;7.88;;;;;;;37.06;73.68;100609.25;5380277;26;68278;-32
2024/04/13 08:02:47;;;;;;;9.07;8.50;;;;;;;37.08;73.90;100602.44;5383365;26;64042;-31
2024/04/13 08:05:18;;;;;;;8.77;8.13;;;;;;;37.11;73.33;100609.25;5384094;26;68807;-31
2024/04/13 08:07:49;;;;;;;8.90;8.30;;;;;;;37.17;73.62;100593.66;5381619;26;64964;-31
2024/04/13 08:10:34;;;;;;;9.20;8.45;;;;;;;37.15;74.07;100593.13;5393282;26;68444;-31
2024/04/13 08:13:06;;;;;;;8.88;8.05;;;;;;;37.20;73.65;100591.22;5376363;26;65627;-31
2024/04/13 08:15:40;;;;;;;11.00;8.93;;;;;;;37.17;72.78;100583.56;5382492;26;68829;-35
2024/04/13 08:18:12;;;;;;;8.70;8.18;;;;;;;37.23;73.77;100581.66;5382702;26;65202;-30
2024/04/13 08:20:49;;;;;;;8.25;7.55;;;;;;;37.26;73.46;100590.16;5380596;26;69332;-31
2024/04/13 08:23:20;;;;;;;8.75;8.25;;;;;;;37.27;72.49;100583.56;5383420;26;64773;-31
2024/04/13 08:25:51;;;;;;;8.75;8.15;;;;;;;37.11;73.30;100560.88;5381198;26;67975;-31
2024/04/13 08:28:22;;;;;;;8.35;7.75;;;;;;;37.30;73.54;100580.28;5382443;26;64322;-32
2024/04/13 08:30:55;;;;;;;9.07;8.33;;;;;;;37.32;73.14;100578.09;5385277;26;68607;-31
2024/04/13 08:33:26;;;;;;;10.63;8.32;;;;;;;37.34;72.65;100573.19;5382606;26;64079;-31
2024/04/13 08:36:05;;;;;;;8.77;7.55;;;;;;;37.34;72.23;100575.94;5380074;26;68547;-32
2024/04/13 08:38:36;;;;;;;9.20;8.38;;;;;;;37.35;73.46;100569.34;5385107;26;65452;-33
2024/04/13 08:41:23;;;;;;;10.13;8.50;;;;;;;37.39;72.35;100566.91;5384341;26;68576;-32
2024/04/13 08:43:54;;;;;;;8.88;8.15;;;;;;;37.42;73.33;100560.91;5387747;26;65561;-31
2024/04/13 08:46:26;;;;;;;11.32;8.45;;;;;;;37.44;72.46;100577.84;5387509;26;69213;-31
2024/04/13 08:48:57;;;;;;;8.55;7.95;;;;;;;37.44;73.29;100568.81;5385458;26;64775;-31
2024/04/13 08:51:31;;;;;;;7.40;7.00;;;;;;;37.45;72.38;100567.75;5385876;26;67911;-32
2024/04/13 08:54:05;;;;;;;8.55;7.75;;;;;;;37.47;72.78;100571.00;5384279;26;65864;-31
2024/04/13 08:56:37;;;;;;;8.30;7.70;;;;;;;37.47;72.71;100573.75;5386041;26;68926;-34
2024/04/13 08:59:13;;;;;;;8.52;7.93;;;;;;;37.43;72.24;100562.53;5383427;26;64533;-32
2024/04/13 09:01:47;;;;;;;7.78;7.32;;;;;;;37.45;72.87;100563.09;5386424;26;68526;-32
2024/04/13 09:04:19;;;;;;;8.68;7.97;;;;;;;37.46;72.90;100561.16;5386596;26;65219;-31
2024/04/13 09:06:49;;;;;;;;;;;;;;;37.41;72.44;100574.84;5385095;26;69344;-31
2024/04/13 09:09:22;;;;;;;8.57;7.75;;;;;;;37.50;72.65;100570.47;5386357;26;65353;-33
2024/04/13 09:11:55;;;;;;;7.70;7.30;;;;;;;37.48;72.66;100578.97;5384709;26;69238;-33
2024/04/13 09:14:27;;;;;;;8.57;8.00;;;;;;;37.49;72.93;100568.84;5384844;26;65257;-35
2024/04/13 09:17:02;;;;;;;8.88;8.27;;;;;;;37.30;72.13;100546.66;5386659;26;69441;-32
2024/04/13 09:19:33;;;;;;;7.63;7.07;;;;;;;37.48;72.30;100572.66;5393041;26;64479;-33
2024/04/13 09:22:05;;;;;;;8.25;7.75;;;;;;;37.42;73.04;100565.53;5393000;26;67972;-31
2024/04/13 09:24:43;;;;;;;8.73;6.97;;;;;;;37.46;72.47;100588.53;5385894;26;64858;-39
2024/04/13 09:27:18;;;;;;;9.88;7.25;;;;;;;37.45;72.71;100582.25;5385853;26;69208;-31
2024/04/13 09:29:49;;;;;;;9.63;7.18;;;;;;;37.45;72.87;100575.94;5385084;26;64888;-31
2024/04/13 09:32:23;;;;;;;8.27;7.53;;;;;;;37.21;72.00;100549.09;5382748;26;67754;-30
2024/04/13 09:34:55;;;;;;;7.95;7.25;;;;;;;37.43;72.12;100580.88;5384730;26;65312;-31
2024/04/13 09:37:26;;;;;;;8.02;7.35;;;;;;;37.42;72.01;100577.31;5384044;26;68717;-33
2024/04/13 09:40:02;;;;;;;7.20;6.65;;;;;;;37.39;73.15;100579.75;5380143;26;63933;-31
2024/04/13 09:42:33;;;;;;;8.20;7.43;;;;;;;37.39;72.98;100572.38;5368839;26;68479;-33
2024/04/13 09:45:11;;;;;;;7.60;7.10;;;;;;;37.18;71.90;100548.84;5383999;26;65732;-31
2024/04/13 09:47:44;;;;;;;7.80;7.10;;;;;;;37.35;72.34;100577.56;5385765;26;68998;-33
2024/04/13 09:50:15;;;;;;;7.45;6.95;;;;;;;37.35;72.02;100585.78;5386163;26;64677;-31
2024/04/13 09:52:46;;;;;;;8.20;6.73;;;;;;;37.33;72.21;100585.25;5392071;26;69146;-31
2024/04/13 09:55:18;;;;;;;9.95;7.78;;;;;;;37.33;72.54;100579.78;5395531;26;64856;-34
2024/04/13 09:57:50;;;;;;;7.53;7.00;;;;;;;37.31;72.60;100581.94;5384996;26;67331;-32
2024/04/13 10:00:22;;;;;;;7.28;6.88;;;;;;;37.31;72.17;100595.63;5384031;26;65154;-35
2024/04/13 10:02:53;;;;;;;7.53;7.03;;;;;;;37.28;72.60;100587.97;5385016;26;67624;-36
2024/04/13 10:05:25;;;;;;;;;;;;;;;37.09;72.02;100589.56;5383016;26;64210;-34
2024/04/13 10:07:58;;;;;;;8.30;6.88;;;;;;;37.07;72.81;100570.69;5384630;26;68580;-34
2024/04/13 10:10:30;;;;;;;7.25;6.68;;;;;;;37.20;71.65;100595.88;5382492;26;65839;-35
2024/04/13 10:13:03;;;;;;;6.95;6.55;;;;;;;36.96;72.20;100557.25;5382312;26;67757;-33
2024/04/13 10:15:36;;;;;;;7.55;7.15;;;;;;;37.11;72.75;100582.75;5384753;26;64727;-31
2024/04/13 10:18:07;;;;;;;8.05;7.55;;;;;;;37.09;72.67;100593.13;5384921;26;69246;-32
2024/04/13 10:20:39;;;;;;;7.30;6.82;;;;;;;37.12;72.20;100594.50;5382832;26;63739;-31
2024/04/13 10:23:10;;;;;;;7.72;7.13;;;;;;;37.06;71.89;100601.06;5385124;26;68857;-31
2024/04/13 10:25:41;;;;;;;;;;;;;;;36.90;72.04;100592.75;5386534;26;64351;-31
2024/04/13 10:28:20;;;;;;;8.23;7.25;;;;;;;36.98;72.39;100593.34;5387728;26;69053;-31
2024/04/13 10:30:57;;;;;;;7.50;7.10;;;;;;;36.98;71.61;100598.81;5385677;26;65558;-31
2024/04/13 10:33:32;;;;;;;7.88;7.47;;;;;;;36.96;71.60;100612.72;5380163;26;68640;-31
2024/04/13 10:36:07;;;;;;;7.88;7.38;;;;;;;36.94;71.67;100616.81;5385705;26;64725;-32
2024/04/13 10:38:38;;;;;;;7.47;7.07;;;;;;;36.94;72.32;100608.63;5378341;26;68610;-30
2024/04/13 10:41:32;;;;;;;8.30;7.70;;;;;;;36.87;71.92;100612.44;5385250;26;65126;-31
2024/04/13 10:44:05;;;;;;;8.45;7.70;;;;;;;36.88;72.36;100611.34;5363305;26;68388;-33
2024/04/13 10:46:36;;;;;;;9.77;7.25;;;;;;;36.86;71.80;100623.63;5385494;26;64802;-32
2024/04/13 10:49:08;;;;;;;8.33;7.63;;;;;;;36.61;72.64;100586.91;5369899;26;68402;-33
2024/04/13 10:51:40;;;;;;;10.10;8.48;;;;;;;36.71;71.37;100610.72;5380881;26;65462;-34
2024/04/13 10:54:14;;;;;;;8.77;8.05;;;;;;;36.79;71.49;100629.34;5383265;26;67771;-31
2024/04/13 10:56:45;;;;;;;10.52;9.13;;;;;;;36.76;72.51;100635.34;5385311;26;64306;-31
2024/04/13 10:59:18;;;;;;;9.15;8.45;;;;;;;36.78;71.82;100640.56;5383332;26;68680;-30
2024/04/13 11:01:49;;;;;;;9.05;8.55;;;;;;;36.76;71.79;100635.34;5388177;26;65633;-30
2024/04/13 11:04:20;;;;;;;8.50;7.95;;;;;;;36.68;72.63;100639.41;5380465;26;67677;-30
2024/04/13 11:06:51;;;;;;;9.45;8.75;;;;;;;36.63;72.24;100635.81;5384802;26;66479;-32
2024/04/13 11:09:22;;;;;;;9.03;8.40;;;;;;;36.61;72.00;100644.31;5383815;26;69414;-32
2024/04/13 11:11:53;;;;;;;9.20;8.53;;;;;;;36.62;72.54;100639.66;5382709;26;64219;-33
2024/04/13 11:14:23;;;;;;;9.38;8.65;;;;;;;36.60;72.41;100652.75;5383986;26;68834;-30
2024/04/13 11:16:54;;;;;;;16.33;14.87;;;;;;;36.57;72.42;100650.56;5407244;26;64659;-31
2024/04/13 11:19:27;;;;;;;17.15;15.57;;;;;;;36.54;72.32;100659.28;5377811;26;70031;-31
2024/04/13 11:22:00;;;;;;;15.32;13.90;;;;;;;36.27;72.06;100616.47;5363706;26;64894;-32
2024/04/13 11:24:31;;;;;;;16.95;15.30;;;;;;;36.44;72.71;100644.47;5383038;26;68432;-31
2024/04/13 11:27:03;;;;;;;19.60;17.85;;;;;;;36.41;72.32;100658.66;5378612;26;65798;-32
2024/04/13 11:29:34;;;;;;;18.65;16.67;;;;;;;36.36;72.48;100664.06;5384536;26;69533;-31
2024/04/13 11:32:06;;;;;;;18.33;16.60;;;;;;;36.36;72.88;100675.00;5383783;26;64586;-30
2024/04/13 11:34:38;;;;;;;20.30;18.50;;;;;;;36.32;72.62;100668.41;5383953;26;69708;-32
2024/04/13 11:37:13;;;;;;;20.98;19.20;;;;;;;36.29;72.57;100668.94;5373831;26;65199;-30